sensor_id;sensor_type;location;lat;lon;timestamp;P1;durP1;ratioP1;P2;durP2;ratioP2
68072;SDS011;54862;51.502;7.446;2023-03-23T00:01:57;9.45;;;3.92;;
68072;SDS011;54862;51.502;7.446;2023-03-23T00:04:23;8.27;;;3.58;;
68072;SDS011;54862;51.502;7.446;2023-03-23T00:06:51;8.68;;;4.22;;
68072;SDS011;54862;51.502;7.446;2023-03-23T00:09:17;9.40;;;3.38;;
68072;SDS011;54862;51.502;7.446;2023-03-23T00:11:48;7.45;;;3.17;;
68072;SDS011;54862;51.502;7.446;2023-03-23T00:14:15;9.40;;;3.50;;
68072;SDS011;54862;51.502;7.446;2023-03-23T00:16:47;12.27;;;3.53;;
68072;SDS011;54862;51.502;7.446;2023-03-23T00:19:14;8.23;;;3.78;;
68072;SDS011;54862;51.502;7.446;2023-03-23T00:21:40;7.90;;;3.58;;
68072;SDS011;54862;51.502;7.446;2023-03-23T00:24:10;7.40;;;3.60;;
68072;SDS011;54862;51.502;7.446;2023-03-23T00:26:37;7.28;;;3.80;;
68072;SDS011;54862;51.502;7.446;2023-03-23T00:29:06;8.65;;;3.60;;
68072;SDS011;54862;51.502;7.446;2023-03-23T00:31:33;11.20;;;3.90;;
68072;SDS011;54862;51.502;7.446;2023-03-23T00:34:00;7.53;;;4.07;;
68072;SDS011;54862;51.502;7.446;2023-03-23T00:36:27;9.35;;;3.60;;
68072;SDS011;54862;51.502;7.446;2023-03-23T00:38:53;6.70;;;3.20;;
68072;SDS011;54862;51.502;7.446;2023-03-23T00:41:23;6.97;;;2.88;;
68072;SDS011;54862;51.502;7.446;2023-03-23T00:43:51;8.75;;;3.45;;
68072;SDS011;54862;51.502;7.446;2023-03-23T00:46:17;10.40;;;3.30;;
68072;SDS011;54862;51.502;7.446;2023-03-23T00:48:45;7.88;;;3.05;;
68072;SDS011;54862;51.502;7.446;2023-03-23T00:51:11;6.95;;;3.10;;
68072;SDS011;54862;51.502;7.446;2023-03-23T00:53:38;10.27;;;3.08;;
68072;SDS011;54862;51.502;7.446;2023-03-23T00:56:04;5.95;;;2.65;;
68072;SDS011;54862;51.502;7.446;2023-03-23T00:58:31;5.93;;;2.70;;
68072;SDS011;54862;51.502;7.446;2023-03-23T01:00:57;6.68;;;2.70;;
68072;SDS011;54862;51.502;7.446;2023-03-23T01:03:22;5.75;;;2.58;;
68072;SDS011;54862;51.502;7.446;2023-03-23T01:05:50;7.13;;;2.67;;
68072;SDS011;54862;51.502;7.446;2023-03-23T01:08:17;6.32;;;2.60;;
68072;SDS011;54862;51.502;7.446;2023-03-23T01:10:43;5.38;;;2.53;;
68072;SDS011;54862;51.502;7.446;2023-03-23T01:13:10;6.80;;;2.80;;
68072;SDS011;54862;51.502;7.446;2023-03-23T01:15:36;6.20;;;2.80;;
68072;SDS011;54862;51.502;7.446;2023-03-23T01:18:02;6.97;;;2.60;;
68072;SDS011;54862;51.502;7.446;2023-03-23T01:20:28;6.45;;;2.60;;
68072;SDS011;54862;51.502;7.446;2023-03-23T01:22:56;7.78;;;3.03;;
68072;SDS011;54862;51.502;7.446;2023-03-23T01:25:25;6.40;;;2.65;;
68072;SDS011;54862;51.502;7.446;2023-03-23T01:27:52;7.95;;;2.70;;
68072;SDS011;54862;51.502;7.446;2023-03-23T01:30:18;8.95;;;3.00;;
68072;SDS011;54862;51.502;7.446;2023-03-23T01:32:44;5.78;;;2.92;;
68072;SDS011;54862;51.502;7.446;2023-03-23T01:35:11;7.22;;;2.70;;
68072;SDS011;54862;51.502;7.446;2023-03-23T01:37:38;6.68;;;2.60;;
68072;SDS011;54862;51.502;7.446;2023-03-23T01:40:04;4.97;;;2.58;;
68072;SDS011;54862;51.502;7.446;2023-03-23T01:42:31;5.53;;;2.78;;
68072;SDS011;54862;51.502;7.446;2023-03-23T01:47:43;10.60;;;2.90;;
68072;SDS011;54862;51.502;7.446;2023-03-23T01:50:09;4.75;;;2.50;;
68072;SDS011;54862;51.502;7.446;2023-03-23T01:52:35;6.55;;;2.72;;
68072;SDS011;54862;51.502;7.446;2023-03-23T01:55:02;4.68;;;2.58;;
68072;SDS011;54862;51.502;7.446;2023-03-23T01:57:28;6.95;;;3.03;;
68072;SDS011;54862;51.502;7.446;2023-03-23T01:59:55;6.78;;;2.75;;
68072;SDS011;54862;51.502;7.446;2023-03-23T02:02:23;8.73;;;3.10;;
68072;SDS011;54862;51.502;7.446;2023-03-23T02:04:51;6.03;;;2.78;;
68072;SDS011;54862;51.502;7.446;2023-03-23T02:07:19;7.32;;;3.13;;
68072;SDS011;54862;51.502;7.446;2023-03-23T02:09:45;5.60;;;2.58;;
68072;SDS011;54862;51.502;7.446;2023-03-23T02:12:11;8.55;;;3.28;;
68072;SDS011;54862;51.502;7.446;2023-03-23T02:14:38;6.22;;;2.70;;
68072;SDS011;54862;51.502;7.446;2023-03-23T02:17:06;5.47;;;2.45;;
68072;SDS011;54862;51.502;7.446;2023-03-23T02:27:00;5.18;;;2.47;;
68072;SDS011;54862;51.502;7.446;2023-03-23T02:34:57;5.25;;;2.55;;
68072;SDS011;54862;51.502;7.446;2023-03-23T02:37:32;6.32;;;2.50;;
68072;SDS011;54862;51.502;7.446;2023-03-23T02:40:03;4.45;;;2.55;;
68072;SDS011;54862;51.502;7.446;2023-03-23T02:42:35;7.53;;;2.45;;
68072;SDS011;54862;51.502;7.446;2023-03-23T02:45:03;6.15;;;2.60;;
68072;SDS011;54862;51.502;7.446;2023-03-23T02:47:30;6.45;;;2.70;;
68072;SDS011;54862;51.502;7.446;2023-03-23T02:49:57;7.18;;;2.90;;
68072;SDS011;54862;51.502;7.446;2023-03-23T02:52:26;5.45;;;2.88;;
68072;SDS011;54862;51.502;7.446;2023-03-23T02:54:53;7.18;;;2.60;;
68072;SDS011;54862;51.502;7.446;2023-03-23T02:57:20;7.13;;;2.80;;
68072;SDS011;54862;51.502;7.446;2023-03-23T02:59:47;6.72;;;2.90;;
68072;SDS011;54862;51.502;7.446;2023-03-23T03:02:47;8.10;;;3.08;;
68072;SDS011;54862;51.502;7.446;2023-03-23T03:05:18;5.55;;;3.10;;
68072;SDS011;54862;51.502;7.446;2023-03-23T03:07:48;5.95;;;2.80;;
68072;SDS011;54862;51.502;7.446;2023-03-23T03:17:54;4.38;;;2.60;;
68072;SDS011;54862;51.502;7.446;2023-03-23T03:20:21;5.53;;;2.60;;
68072;SDS011;54862;51.502;7.446;2023-03-23T03:22:50;5.60;;;2.83;;
68072;SDS011;54862;51.502;7.446;2023-03-23T03:25:17;5.47;;;2.53;;
68072;SDS011;54862;51.502;7.446;2023-03-23T03:27:45;5.95;;;2.88;;
68072;SDS011;54862;51.502;7.446;2023-03-23T03:30:14;4.10;;;2.50;;
68072;SDS011;54862;51.502;7.446;2023-03-23T03:32:44;6.40;;;2.63;;
68072;SDS011;54862;51.502;7.446;2023-03-23T03:35:13;9.15;;;3.08;;
68072;SDS011;54862;51.502;7.446;2023-03-23T03:37:40;7.43;;;2.88;;
68072;SDS011;54862;51.502;7.446;2023-03-23T03:40:07;5.75;;;2.90;;
68072;SDS011;54862;51.502;7.446;2023-03-23T03:42:39;6.50;;;2.50;;
68072;SDS011;54862;51.502;7.446;2023-03-23T03:45:06;7.07;;;2.97;;
68072;SDS011;54862;51.502;7.446;2023-03-23T03:47:33;5.32;;;2.60;;
68072;SDS011;54862;51.502;7.446;2023-03-23T03:49:59;5.28;;;2.67;;
68072;SDS011;54862;51.502;7.446;2023-03-23T03:52:25;4.95;;;2.58;;
68072;SDS011;54862;51.502;7.446;2023-03-23T03:54:52;6.25;;;2.95;;
68072;SDS011;54862;51.502;7.446;2023-03-23T03:57:18;4.88;;;2.45;;
68072;SDS011;54862;51.502;7.446;2023-03-23T03:59:44;7.47;;;2.70;;
68072;SDS011;54862;51.502;7.446;2023-03-23T04:02:10;3.95;;;2.28;;
68072;SDS011;54862;51.502;7.446;2023-03-23T04:04:39;4.78;;;2.45;;
68072;SDS011;54862;51.502;7.446;2023-03-23T04:07:06;5.38;;;2.50;;
68072;SDS011;54862;51.502;7.446;2023-03-23T04:09:35;5.10;;;2.63;;
68072;SDS011;54862;51.502;7.446;2023-03-23T04:12:02;5.38;;;2.40;;
68072;SDS011;54862;51.502;7.446;2023-03-23T04:14:28;6.20;;;2.60;;
68072;SDS011;54862;51.502;7.446;2023-03-23T04:16:54;6.28;;;2.28;;
68072;SDS011;54862;51.502;7.446;2023-03-23T04:19:21;5.20;;;2.38;;
68072;SDS011;54862;51.502;7.446;2023-03-23T04:21:48;5.53;;;2.30;;
68072;SDS011;54862;51.502;7.446;2023-03-23T04:24:14;4.70;;;2.42;;
68072;SDS011;54862;51.502;7.446;2023-03-23T04:26:41;5.90;;;2.45;;
68072;SDS011;54862;51.502;7.446;2023-03-23T04:29:07;4.90;;;2.33;;
68072;SDS011;54862;51.502;7.446;2023-03-23T04:31:34;6.28;;;2.50;;
68072;SDS011;54862;51.502;7.446;2023-03-23T04:34:01;5.15;;;2.55;;
68072;SDS011;54862;51.502;7.446;2023-03-23T04:36:28;5.85;;;2.35;;
68072;SDS011;54862;51.502;7.446;2023-03-23T04:38:55;5.38;;;2.50;;
68072;SDS011;54862;51.502;7.446;2023-03-23T04:41:21;3.40;;;2.13;;
68072;SDS011;54862;51.502;7.446;2023-03-23T04:43:48;4.25;;;2.08;;
68072;SDS011;54862;51.502;7.446;2023-03-23T04:46:17;4.95;;;2.20;;
68072;SDS011;54862;51.502;7.446;2023-03-23T04:48:44;4.75;;;2.20;;
68072;SDS011;54862;51.502;7.446;2023-03-23T04:51:10;4.97;;;2.50;;
68072;SDS011;54862;51.502;7.446;2023-03-23T04:53:37;4.18;;;2.13;;
68072;SDS011;54862;51.502;7.446;2023-03-23T04:56:03;3.50;;;2.17;;
68072;SDS011;54862;51.502;7.446;2023-03-23T04:58:29;4.38;;;2.15;;
68072;SDS011;54862;51.502;7.446;2023-03-23T05:00:59;3.88;;;2.20;;
68072;SDS011;54862;51.502;7.446;2023-03-23T05:03:25;4.45;;;2.25;;
68072;SDS011;54862;51.502;7.446;2023-03-23T05:05:52;4.13;;;2.25;;
68072;SDS011;54862;51.502;7.446;2023-03-23T05:08:22;6.65;;;2.10;;
68072;SDS011;54862;51.502;7.446;2023-03-23T05:10:52;5.30;;;2.10;;
68072;SDS011;54862;51.502;7.446;2023-03-23T05:13:19;5.03;;;2.28;;
68072;SDS011;54862;51.502;7.446;2023-03-23T05:15:45;4.25;;;2.00;;
68072;SDS011;54862;51.502;7.446;2023-03-23T05:18:11;3.95;;;2.20;;
68072;SDS011;54862;51.502;7.446;2023-03-23T05:20:37;7.63;;;2.45;;
68072;SDS011;54862;51.502;7.446;2023-03-23T05:23:04;5.57;;;2.53;;
68072;SDS011;54862;51.502;7.446;2023-03-23T05:25:30;3.72;;;2.05;;
68072;SDS011;54862;51.502;7.446;2023-03-23T05:28:01;3.47;;;2.00;;
68072;SDS011;54862;51.502;7.446;2023-03-23T05:30:27;5.22;;;2.20;;
68072;SDS011;54862;51.502;7.446;2023-03-23T05:32:54;3.85;;;2.05;;
68072;SDS011;54862;51.502;7.446;2023-03-23T05:35:20;3.78;;;2.17;;
68072;SDS011;54862;51.502;7.446;2023-03-23T05:37:47;4.40;;;2.00;;
68072;SDS011;54862;51.502;7.446;2023-03-23T05:40:13;5.53;;;2.10;;
68072;SDS011;54862;51.502;7.446;2023-03-23T05:42:40;6.28;;;2.40;;
68072;SDS011;54862;51.502;7.446;2023-03-23T05:45:07;6.15;;;2.45;;
68072;SDS011;54862;51.502;7.446;2023-03-23T05:47:33;8.27;;;2.40;;
68072;SDS011;54862;51.502;7.446;2023-03-23T05:49:59;3.63;;;2.10;;
68072;SDS011;54862;51.502;7.446;2023-03-23T05:52:26;6.55;;;2.55;;
68072;SDS011;54862;51.502;7.446;2023-03-23T05:54:52;4.90;;;2.30;;
68072;SDS011;54862;51.502;7.446;2023-03-23T05:57:18;4.70;;;2.25;;
68072;SDS011;54862;51.502;7.446;2023-03-23T05:59:47;4.90;;;2.45;;
68072;SDS011;54862;51.502;7.446;2023-03-23T06:02:13;7.03;;;2.30;;
68072;SDS011;54862;51.502;7.446;2023-03-23T06:04:39;5.57;;;2.50;;
68072;SDS011;54862;51.502;7.446;2023-03-23T06:07:06;7.38;;;2.47;;
68072;SDS011;54862;51.502;7.446;2023-03-23T06:09:32;5.78;;;2.40;;
68072;SDS011;54862;51.502;7.446;2023-03-23T06:11:58;6.75;;;2.60;;
68072;SDS011;54862;51.502;7.446;2023-03-23T06:14:24;6.90;;;2.78;;
68072;SDS011;54862;51.502;7.446;2023-03-23T06:16:51;5.38;;;2.60;;
68072;SDS011;54862;51.502;7.446;2023-03-23T06:19:17;5.50;;;2.47;;
68072;SDS011;54862;51.502;7.446;2023-03-23T06:21:43;5.85;;;2.58;;
68072;SDS011;54862;51.502;7.446;2023-03-23T06:24:09;5.65;;;2.55;;
68072;SDS011;54862;51.502;7.446;2023-03-23T06:26:36;5.10;;;2.60;;
68072;SDS011;54862;51.502;7.446;2023-03-23T06:29:03;3.92;;;2.40;;
68072;SDS011;54862;51.502;7.446;2023-03-23T06:31:35;6.30;;;2.70;;
68072;SDS011;54862;51.502;7.446;2023-03-23T06:34:01;6.28;;;2.42;;
68072;SDS011;54862;51.502;7.446;2023-03-23T06:36:27;6.15;;;2.58;;
68072;SDS011;54862;51.502;7.446;2023-03-23T06:38:53;6.55;;;2.67;;
68072;SDS011;54862;51.502;7.446;2023-03-23T06:41:20;5.53;;;2.50;;
68072;SDS011;54862;51.502;7.446;2023-03-23T06:43:46;6.38;;;2.78;;
68072;SDS011;54862;51.502;7.446;2023-03-23T06:46:12;6.32;;;3.15;;
68072;SDS011;54862;51.502;7.446;2023-03-23T06:48:38;8.30;;;2.70;;
68072;SDS011;54862;51.502;7.446;2023-03-23T06:51:04;6.95;;;2.67;;
68072;SDS011;54862;51.502;7.446;2023-03-23T06:53:30;6.50;;;2.53;;
68072;SDS011;54862;51.502;7.446;2023-03-23T06:55:56;5.25;;;2.30;;
68072;SDS011;54862;51.502;7.446;2023-03-23T06:58:22;5.32;;;2.38;;
68072;SDS011;54862;51.502;7.446;2023-03-23T07:00:53;5.55;;;2.60;;
68072;SDS011;54862;51.502;7.446;2023-03-23T07:03:21;4.97;;;2.42;;
68072;SDS011;54862;51.502;7.446;2023-03-23T07:05:47;6.68;;;2.55;;
68072;SDS011;54862;51.502;7.446;2023-03-23T07:08:13;7.45;;;2.67;;
68072;SDS011;54862;51.502;7.446;2023-03-23T07:10:39;4.93;;;2.33;;
68072;SDS011;54862;51.502;7.446;2023-03-23T07:13:06;9.00;;;3.20;;
68072;SDS011;54862;51.502;7.446;2023-03-23T07:15:32;5.00;;;2.30;;
68072;SDS011;54862;51.502;7.446;2023-03-23T07:17:58;5.60;;;2.55;;
68072;SDS011;54862;51.502;7.446;2023-03-23T07:20:24;5.75;;;2.50;;
68072;SDS011;54862;51.502;7.446;2023-03-23T07:22:50;4.85;;;2.08;;
68072;SDS011;54862;51.502;7.446;2023-03-23T07:25:17;6.60;;;2.60;;
68072;SDS011;54862;51.502;7.446;2023-03-23T07:27:44;5.38;;;2.33;;
68072;SDS011;54862;51.502;7.446;2023-03-23T07:30:10;7.65;;;2.22;;
68072;SDS011;54862;51.502;7.446;2023-03-23T07:32:37;5.10;;;2.35;;
68072;SDS011;54862;51.502;7.446;2023-03-23T07:35:03;6.78;;;2.22;;
68072;SDS011;54862;51.502;7.446;2023-03-23T07:37:29;7.05;;;2.30;;
68072;SDS011;54862;51.502;7.446;2023-03-23T07:39:57;6.18;;;2.50;;
68072;SDS011;54862;51.502;7.446;2023-03-23T07:42:23;7.05;;;2.42;;
68072;SDS011;54862;51.502;7.446;2023-03-23T07:44:49;6.25;;;2.35;;
68072;SDS011;54862;51.502;7.446;2023-03-23T07:47:15;8.48;;;2.70;;
68072;SDS011;54862;51.502;7.446;2023-03-23T07:49:42;6.25;;;2.50;;
68072;SDS011;54862;51.502;7.446;2023-03-23T07:52:08;4.68;;;2.50;;
68072;SDS011;54862;51.502;7.446;2023-03-23T07:54:36;6.75;;;2.28;;
68072;SDS011;54862;51.502;7.446;2023-03-23T07:57:02;7.18;;;2.50;;
68072;SDS011;54862;51.502;7.446;2023-03-23T07:59:28;6.63;;;2.70;;
68072;SDS011;54862;51.502;7.446;2023-03-23T08:01:54;5.82;;;2.13;;
68072;SDS011;54862;51.502;7.446;2023-03-23T08:04:22;5.50;;;2.25;;
68072;SDS011;54862;51.502;7.446;2023-03-23T08:06:48;8.63;;;2.47;;
68072;SDS011;54862;51.502;7.446;2023-03-23T08:09:14;5.25;;;2.42;;
68072;SDS011;54862;51.502;7.446;2023-03-23T08:11:40;7.03;;;2.40;;
68072;SDS011;54862;51.502;7.446;2023-03-23T08:14:06;6.13;;;2.38;;
68072;SDS011;54862;51.502;7.446;2023-03-23T08:16:32;6.70;;;2.13;;
68072;SDS011;54862;51.502;7.446;2023-03-23T08:18:59;6.88;;;2.60;;
68072;SDS011;54862;51.502;7.446;2023-03-23T08:21:25;5.25;;;2.10;;
68072;SDS011;54862;51.502;7.446;2023-03-23T08:23:51;5.10;;;2.25;;
68072;SDS011;54862;51.502;7.446;2023-03-23T08:26:17;7.28;;;2.20;;
68072;SDS011;54862;51.502;7.446;2023-03-23T08:28:43;5.60;;;2.63;;
68072;SDS011;54862;51.502;7.446;2023-03-23T08:31:12;4.47;;;2.10;;
68072;SDS011;54862;51.502;7.446;2023-03-23T08:33:38;5.07;;;2.13;;
68072;SDS011;54862;51.502;7.446;2023-03-23T08:36:06;7.60;;;2.00;;
68072;SDS011;54862;51.502;7.446;2023-03-23T08:38:33;9.80;;;2.50;;
68072;SDS011;54862;51.502;7.446;2023-03-23T08:41:00;6.20;;;2.45;;
68072;SDS011;54862;51.502;7.446;2023-03-23T08:43:27;6.35;;;2.10;;
68072;SDS011;54862;51.502;7.446;2023-03-23T08:45:54;5.97;;;2.40;;
68072;SDS011;54862;51.502;7.446;2023-03-23T08:48:20;5.28;;;2.30;;
68072;SDS011;54862;51.502;7.446;2023-03-23T08:50:48;9.88;;;2.60;;
68072;SDS011;54862;51.502;7.446;2023-03-23T08:53:14;6.22;;;2.15;;
68072;SDS011;54862;51.502;7.446;2023-03-23T08:55:40;6.13;;;2.20;;
68072;SDS011;54862;51.502;7.446;2023-03-23T08:58:08;7.68;;;2.30;;
68072;SDS011;54862;51.502;7.446;2023-03-23T09:00:34;5.47;;;2.15;;
68072;SDS011;54862;51.502;7.446;2023-03-23T09:03:00;6.85;;;2.30;;
68072;SDS011;54862;51.502;7.446;2023-03-23T09:05:27;6.68;;;2.20;;
68072;SDS011;54862;51.502;7.446;2023-03-23T09:07:54;5.40;;;2.33;;
68072;SDS011;54862;51.502;7.446;2023-03-23T09:10:23;6.90;;;2.40;;
68072;SDS011;54862;51.502;7.446;2023-03-23T09:12:51;4.88;;;2.10;;
68072;SDS011;54862;51.502;7.446;2023-03-23T09:15:17;5.00;;;2.42;;
68072;SDS011;54862;51.502;7.446;2023-03-23T09:17:44;6.07;;;2.20;;
68072;SDS011;54862;51.502;7.446;2023-03-23T09:20:11;6.93;;;2.28;;
68072;SDS011;54862;51.502;7.446;2023-03-23T09:22:42;5.18;;;2.45;;
68072;SDS011;54862;51.502;7.446;2023-03-23T09:25:12;6.72;;;2.38;;
68072;SDS011;54862;51.502;7.446;2023-03-23T09:27:40;6.13;;;2.30;;
68072;SDS011;54862;51.502;7.446;2023-03-23T09:30:07;7.72;;;2.35;;
68072;SDS011;54862;51.502;7.446;2023-03-23T09:32:34;6.88;;;2.15;;
68072;SDS011;54862;51.502;7.446;2023-03-23T09:35:00;7.63;;;2.45;;
68072;SDS011;54862;51.502;7.446;2023-03-23T09:37:26;5.50;;;2.30;;
68072;SDS011;54862;51.502;7.446;2023-03-23T09:39:52;5.65;;;2.38;;
68072;SDS011;54862;51.502;7.446;2023-03-23T09:42:23;5.13;;;1.92;;
68072;SDS011;54862;51.502;7.446;2023-03-23T09:45:02;5.97;;;2.03;;
68072;SDS011;54862;51.502;7.446;2023-03-23T09:50:08;10.02;;;2.30;;
68072;SDS011;54862;51.502;7.446;2023-03-23T09:55:04;6.90;;;2.10;;
68072;SDS011;54862;51.502;7.446;2023-03-23T09:57:35;7.00;;;2.80;;
68072;SDS011;54862;51.502;7.446;2023-03-23T10:00:09;6.53;;;2.22;;
68072;SDS011;54862;51.502;7.446;2023-03-23T10:02:41;5.78;;;2.25;;
68072;SDS011;54862;51.502;7.446;2023-03-23T10:05:25;7.68;;;2.30;;
68072;SDS011;54862;51.502;7.446;2023-03-23T10:07:53;7.82;;;2.50;;
68072;SDS011;54862;51.502;7.446;2023-03-23T10:10:20;5.00;;;1.85;;
68072;SDS011;54862;51.502;7.446;2023-03-23T10:12:50;6.78;;;2.30;;
68072;SDS011;54862;51.502;7.446;2023-03-23T10:15:20;8.60;;;2.03;;
68072;SDS011;54862;51.502;7.446;2023-03-23T10:22:42;6.80;;;2.40;;
68072;SDS011;54862;51.502;7.446;2023-03-23T10:28:01;8.55;;;2.50;;
68072;SDS011;54862;51.502;7.446;2023-03-23T10:32:58;7.20;;;1.98;;
68072;SDS011;54862;51.502;7.446;2023-03-23T10:35:44;4.70;;;1.83;;
68072;SDS011;54862;51.502;7.446;2023-03-23T10:38:20;5.57;;;1.85;;
68072;SDS011;54862;51.502;7.446;2023-03-23T10:40:58;5.40;;;1.90;;
68072;SDS011;54862;51.502;7.446;2023-03-23T10:43:24;3.72;;;1.63;;
68072;SDS011;54862;51.502;7.446;2023-03-23T10:45:55;3.78;;;1.58;;
68072;SDS011;54862;51.502;7.446;2023-03-23T10:48:28;7.72;;;1.77;;
68072;SDS011;54862;51.502;7.446;2023-03-23T10:50:57;3.08;;;1.75;;
68072;SDS011;54862;51.502;7.446;2023-03-23T10:53:46;4.85;;;2.30;;
68072;SDS011;54862;51.502;7.446;2023-03-23T10:58:47;5.03;;;2.00;;
68072;SDS011;54862;51.502;7.446;2023-03-23T11:01:13;4.20;;;1.70;;
68072;SDS011;54862;51.502;7.446;2023-03-23T11:03:44;6.05;;;2.40;;
68072;SDS011;54862;51.502;7.446;2023-03-23T11:06:19;3.97;;;1.60;;
68072;SDS011;54862;51.502;7.446;2023-03-23T11:08:49;6.53;;;2.35;;
68072;SDS011;54862;51.502;7.446;2023-03-23T11:11:18;4.28;;;1.80;;
68072;SDS011;54862;51.502;7.446;2023-03-23T11:13:47;4.13;;;1.95;;
68072;SDS011;54862;51.502;7.446;2023-03-23T11:16:24;6.43;;;2.08;;
68072;SDS011;54862;51.502;7.446;2023-03-23T11:18:50;4.32;;;1.95;;
68072;SDS011;54862;51.502;7.446;2023-03-23T11:21:17;3.25;;;1.70;;
68072;SDS011;54862;51.502;7.446;2023-03-23T11:23:46;9.35;;;2.33;;
68072;SDS011;54862;51.502;7.446;2023-03-23T11:26:21;6.68;;;2.30;;
68072;SDS011;54862;51.502;7.446;2023-03-23T11:28:51;6.85;;;2.80;;
68072;SDS011;54862;51.502;7.446;2023-03-23T11:31:21;5.40;;;2.60;;
68072;SDS011;54862;51.502;7.446;2023-03-23T11:36:13;7.40;;;2.70;;
68072;SDS011;54862;51.502;7.446;2023-03-23T11:38:40;5.40;;;2.67;;
68072;SDS011;54862;51.502;7.446;2023-03-23T11:41:16;8.75;;;2.83;;
68072;SDS011;54862;51.502;7.446;2023-03-23T11:43:44;9.90;;;3.20;;
68072;SDS011;54862;51.502;7.446;2023-03-23T11:46:14;7.68;;;3.30;;
68072;SDS011;54862;51.502;7.446;2023-03-23T11:51:24;8.63;;;3.58;;
68072;SDS011;54862;51.502;7.446;2023-03-23T11:56:23;9.95;;;3.10;;
68072;SDS011;54862;51.502;7.446;2023-03-23T11:58:53;8.93;;;3.10;;
68072;SDS011;54862;51.502;7.446;2023-03-23T12:06:51;10.55;;;4.40;;
68072;SDS011;54862;51.502;7.446;2023-03-23T12:09:18;9.10;;;4.40;;
68072;SDS011;54862;51.502;7.446;2023-03-23T12:12:09;13.25;;;6.00;;
68072;SDS011;54862;51.502;7.446;2023-03-23T12:14:40;11.50;;;5.97;;
68072;SDS011;54862;51.502;7.446;2023-03-23T12:19:50;12.25;;;5.75;;
68072;SDS011;54862;51.502;7.446;2023-03-23T12:27:24;6.60;;;3.30;;
68072;SDS011;54862;51.502;7.446;2023-03-23T12:30:02;7.90;;;3.00;;
68072;SDS011;54862;51.502;7.446;2023-03-23T12:32:40;6.20;;;3.00;;
68072;SDS011;54862;51.502;7.446;2023-03-23T12:38:41;7.90;;;3.08;;
68072;SDS011;54862;51.502;7.446;2023-03-23T12:41:20;5.90;;;2.92;;
68072;SDS011;54862;51.502;7.446;2023-03-23T12:48:57;4.97;;;2.60;;
68072;SDS011;54862;51.502;7.446;2023-03-23T12:51:39;6.60;;;2.40;;
68072;SDS011;54862;51.502;7.446;2023-03-23T12:56:39;9.00;;;3.20;;
68072;SDS011;54862;51.502;7.446;2023-03-23T12:59:10;6.13;;;3.00;;
68072;SDS011;54862;51.502;7.446;2023-03-23T13:01:43;7.35;;;3.00;;
68072;SDS011;54862;51.502;7.446;2023-03-23T13:04:11;7.32;;;2.95;;
68072;SDS011;54862;51.502;7.446;2023-03-23T13:06:40;6.97;;;2.80;;
68072;SDS011;54862;51.502;7.446;2023-03-23T13:11:45;6.95;;;2.90;;
68072;SDS011;54862;51.502;7.446;2023-03-23T13:14:24;8.45;;;2.92;;
68072;SDS011;54862;51.502;7.446;2023-03-23T13:17:10;7.72;;;2.85;;
68072;SDS011;54862;51.502;7.446;2023-03-23T13:24:54;10.05;;;3.22;;
68072;SDS011;54862;51.502;7.446;2023-03-23T13:27:24;7.28;;;3.60;;
68072;SDS011;54862;51.502;7.446;2023-03-23T13:29:52;6.22;;;3.00;;
68072;SDS011;54862;51.502;7.446;2023-03-23T13:32:19;9.48;;;3.55;;
68072;SDS011;54862;51.502;7.446;2023-03-23T13:34:46;8.63;;;3.75;;
68072;SDS011;54862;51.502;7.446;2023-03-23T13:39:59;7.57;;;3.17;;
68072;SDS011;54862;51.502;7.446;2023-03-23T13:42:27;8.63;;;3.20;;
68072;SDS011;54862;51.502;7.446;2023-03-23T13:44:56;10.07;;;3.20;;
68072;SDS011;54862;51.502;7.446;2023-03-23T13:49:53;7.03;;;2.83;;
68072;SDS011;54862;51.502;7.446;2023-03-23T13:52:39;6.50;;;2.70;;
68072;SDS011;54862;51.502;7.446;2023-03-23T13:55:17;5.22;;;2.55;;
68072;SDS011;54862;51.502;7.446;2023-03-23T14:03:13;7.97;;;3.00;;
68072;SDS011;54862;51.502;7.446;2023-03-23T14:05:44;7.47;;;2.67;;
68072;SDS011;54862;51.502;7.446;2023-03-23T14:10:58;7.55;;;2.95;;
68072;SDS011;54862;51.502;7.446;2023-03-23T14:16:17;5.93;;;2.72;;
68072;SDS011;54862;51.502;7.446;2023-03-23T14:18:54;12.10;;;3.67;;
68072;SDS011;54862;51.502;7.446;2023-03-23T14:21:22;7.60;;;3.30;;
68072;SDS011;54862;51.502;7.446;2023-03-23T14:23:49;7.95;;;3.70;;
68072;SDS011;54862;51.502;7.446;2023-03-23T14:26:16;9.88;;;4.63;;
68072;SDS011;54862;51.502;7.446;2023-03-23T14:28:44;10.50;;;4.80;;
68072;SDS011;54862;51.502;7.446;2023-03-23T14:31:18;9.32;;;4.53;;
68072;SDS011;54862;51.502;7.446;2023-03-23T14:33:45;9.48;;;4.00;;
68072;SDS011;54862;51.502;7.446;2023-03-23T14:36:13;8.40;;;4.57;;
68072;SDS011;54862;51.502;7.446;2023-03-23T14:38:39;11.30;;;5.10;;
68072;SDS011;54862;51.502;7.446;2023-03-23T14:41:05;13.48;;;4.55;;
68072;SDS011;54862;51.502;7.446;2023-03-23T14:43:32;9.45;;;4.80;;
68072;SDS011;54862;51.502;7.446;2023-03-23T14:46:00;8.85;;;4.50;;
68072;SDS011;54862;51.502;7.446;2023-03-23T14:48:26;9.45;;;4.70;;
68072;SDS011;54862;51.502;7.446;2023-03-23T14:50:57;10.90;;;5.00;;
68072;SDS011;54862;51.502;7.446;2023-03-23T14:55:55;12.32;;;5.68;;
68072;SDS011;54862;51.502;7.446;2023-03-23T14:58:27;10.95;;;5.40;;
68072;SDS011;54862;51.502;7.446;2023-03-23T15:00:55;12.02;;;6.45;;
68072;SDS011;54862;51.502;7.446;2023-03-23T15:03:24;13.90;;;5.78;;
68072;SDS011;54862;51.502;7.446;2023-03-23T15:05:57;11.13;;;5.45;;
68072;SDS011;54862;51.502;7.446;2023-03-23T15:08:25;9.82;;;5.00;;
68072;SDS011;54862;51.502;7.446;2023-03-23T15:11:21;14.25;;;5.40;;
68072;SDS011;54862;51.502;7.446;2023-03-23T15:13:43;10.88;;;4.95;;
68072;SDS011;54862;51.502;7.446;2023-03-23T15:16:13;10.05;;;5.13;;
68072;SDS011;54862;51.502;7.446;2023-03-23T15:18:40;9.63;;;4.75;;
68072;SDS011;54862;51.502;7.446;2023-03-23T15:21:11;10.98;;;4.50;;
68072;SDS011;54862;51.502;7.446;2023-03-23T15:23:41;10.55;;;4.30;;
68072;SDS011;54862;51.502;7.446;2023-03-23T15:26:09;9.38;;;3.78;;
68072;SDS011;54862;51.502;7.446;2023-03-23T15:28:41;7.13;;;3.10;;
68072;SDS011;54862;51.502;7.446;2023-03-23T15:31:07;10.02;;;3.10;;
68072;SDS011;54862;51.502;7.446;2023-03-23T15:33:34;9.13;;;3.55;;
68072;SDS011;54862;51.502;7.446;2023-03-23T15:36:04;7.55;;;2.80;;
68072;SDS011;54862;51.502;7.446;2023-03-23T15:38:32;6.90;;;2.83;;
68072;SDS011;54862;51.502;7.446;2023-03-23T15:40:59;8.75;;;2.75;;
68072;SDS011;54862;51.502;7.446;2023-03-23T15:43:26;7.43;;;2.63;;
68072;SDS011;54862;51.502;7.446;2023-03-23T15:45:56;6.63;;;2.85;;
68072;SDS011;54862;51.502;7.446;2023-03-23T15:48:31;5.45;;;2.15;;
68072;SDS011;54862;51.502;7.446;2023-03-23T15:50:57;5.38;;;2.40;;
68072;SDS011;54862;51.502;7.446;2023-03-23T15:55:53;6.85;;;2.70;;
68072;SDS011;54862;51.502;7.446;2023-03-23T15:58:19;5.85;;;2.17;;
68072;SDS011;54862;51.502;7.446;2023-03-23T16:00:46;6.35;;;2.20;;
68072;SDS011;54862;51.502;7.446;2023-03-23T16:03:17;7.63;;;2.42;;
68072;SDS011;54862;51.502;7.446;2023-03-23T16:05:46;4.75;;;1.83;;
68072;SDS011;54862;51.502;7.446;2023-03-23T16:08:12;7.57;;;2.38;;
68072;SDS011;54862;51.502;7.446;2023-03-23T16:10:40;6.47;;;2.17;;
68072;SDS011;54862;51.502;7.446;2023-03-23T16:13:06;7.32;;;2.10;;
68072;SDS011;54862;51.502;7.446;2023-03-23T16:15:32;5.78;;;2.10;;
68072;SDS011;54862;51.502;7.446;2023-03-23T16:17:58;8.93;;;2.40;;
68072;SDS011;54862;51.502;7.446;2023-03-23T16:20:24;5.00;;;2.00;;
68072;SDS011;54862;51.502;7.446;2023-03-23T16:22:50;8.27;;;2.75;;
68072;SDS011;54862;51.502;7.446;2023-03-23T16:25:17;8.77;;;2.42;;
68072;SDS011;54862;51.502;7.446;2023-03-23T16:27:43;5.78;;;2.10;;
68072;SDS011;54862;51.502;7.446;2023-03-23T16:32:41;6.80;;;2.30;;
68072;SDS011;54862;51.502;7.446;2023-03-23T16:35:07;6.78;;;2.50;;
68072;SDS011;54862;51.502;7.446;2023-03-23T16:37:33;6.38;;;2.60;;